createdAt,value
2023-03-27T00:00:16.638Z,6.80
2023-03-27T00:02:49.041Z,6.70
2023-03-27T00:05:20.440Z,6.60
2023-03-27T00:07:49.554Z,6.60
2023-03-27T00:10:18.577Z,6.60
2023-03-27T00:12:47.178Z,6.60
2023-03-27T00:15:17.369Z,6.60
2023-03-27T00:17:50.140Z,6.60
2023-03-27T00:20:21.815Z,6.60
2023-03-27T00:22:55.367Z,6.60
2023-03-27T00:25:24.980Z,6.60
2023-03-27T00:27:53.961Z,6.60
2023-03-27T00:30:22.235Z,6.50
2023-03-27T00:32:52.168Z,6.50
2023-03-27T00:35:20.752Z,6.50
2023-03-27T00:37:49.088Z,6.50
2023-03-27T00:40:18.716Z,6.60
2023-03-27T00:42:48.127Z,6.60
2023-03-27T00:45:18.933Z,6.60
2023-03-27T00:47:54.209Z,6.50
2023-03-27T00:50:29.211Z,6.50
2023-03-27T00:53:02.170Z,6.40
2023-03-27T00:55:34.561Z,6.40
2023-03-27T00:58:07.139Z,6.50
2023-03-27T01:00:36.037Z,6.40
2023-03-27T01:03:08.226Z,6.40
2023-03-27T01:05:39.347Z,6.40
2023-03-27T01:08:08.841Z,6.40
2023-03-27T01:10:48.200Z,6.40
2023-03-27T01:13:31.940Z,6.40
2023-03-27T01:16:07.201Z,6.30
2023-03-27T01:18:49.039Z,6.10
2023-03-27T01:22:02.467Z,6.00
2023-03-27T01:24:57.941Z,6.00
2023-03-27T01:27:52.623Z,6.00
2023-03-27T01:30:27.805Z,6.00
2023-03-27T01:33:17.665Z,6.00
2023-03-27T01:36:18.383Z,6.10
2023-03-27T01:39:17.246Z,6.10
2023-03-27T01:41:53.242Z,6.10
2023-03-27T01:44:43.065Z,6.10
2023-03-27T01:47:21.258Z,6.20
2023-03-27T01:49:55.338Z,6.20
2023-03-27T01:52:29.341Z,6.20
2023-03-27T01:55:05.081Z,6.10
2023-03-27T01:57:49.458Z,6.00
2023-03-27T02:00:22.726Z,6.00
2023-03-27T02:02:55.667Z,6.00
2023-03-27T02:05:31.325Z,6.00
2023-03-27T02:08:06.168Z,5.90
2023-03-27T02:10:42.353Z,5.90
2023-03-27T02:13:21.336Z,5.90
2023-03-27T02:15:52.396Z,5.90
2023-03-27T02:18:25.693Z,5.80
2023-03-27T02:20:54.083Z,5.80
2023-03-27T02:23:23.573Z,5.80
2023-03-27T02:25:55.404Z,5.70
2023-03-27T02:28:35.824Z,5.70
2023-03-27T02:31:32.824Z,5.60
2023-03-27T02:34:31.670Z,5.50
2023-03-27T02:37:06.982Z,5.40
2023-03-27T02:39:58.920Z,5.30
2023-03-27T02:42:35.341Z,5.30
2023-03-27T02:45:11.360Z,5.30
2023-03-27T02:47:42.653Z,5.40
2023-03-27T02:50:17.105Z,5.30
2023-03-27T02:52:51.008Z,5.40
2023-03-27T02:55:24.880Z,5.40
2023-03-27T02:57:59.535Z,5.30
2023-03-27T03:00:30.183Z,5.20
2023-03-27T03:03:33.271Z,5.10
2023-03-27T03:06:11.171Z,5.10
2023-03-27T03:08:40.071Z,5.20
2023-03-27T03:11:14.423Z,5.30
2023-03-27T03:13:44.360Z,5.20
2023-03-27T03:16:12.942Z,5.20
2023-03-27T03:18:41.561Z,5.20
2023-03-27T03:21:10.006Z,5.20
2023-03-27T03:23:39.337Z,5.20
2023-03-27T03:26:08.539Z,5.20
2023-03-27T03:29:00.913Z,5.10
2023-03-27T03:31:44.708Z,5.10
2023-03-27T03:34:14.800Z,5.00
2023-03-27T03:36:44.958Z,5.00
2023-03-27T03:39:14.509Z,4.80
2023-03-27T03:41:48.394Z,4.90
2023-03-27T03:44:18.250Z,4.90
2023-03-27T03:46:46.552Z,4.90
2023-03-27T03:49:18.435Z,4.80
2023-03-27T03:51:46.845Z,4.70
2023-03-27T03:54:32.899Z,4.70
2023-03-27T03:57:03.105Z,4.70
2023-03-27T03:59:33.394Z,4.80
2023-03-27T04:02:29.446Z,4.80
2023-03-27T04:05:08.741Z,4.60
2023-03-27T04:07:41.086Z,4.60
2023-03-27T04:10:32.584Z,4.60
2023-03-27T04:13:04.861Z,4.50
2023-03-27T04:15:39.474Z,4.60
2023-03-27T04:18:15.221Z,4.60
2023-03-27T04:20:49.596Z,4.60
2023-03-27T04:23:20.029Z,4.60
2023-03-27T04:25:49.370Z,4.60
2023-03-27T04:28:23.845Z,4.60
2023-03-27T04:31:07.978Z,4.60
2023-03-27T04:34:14.397Z,4.50
2023-03-27T04:37:16.365Z,4.50
2023-03-27T04:40:00.316Z,4.50
2023-03-27T04:42:28.593Z,4.50
2023-03-27T04:44:57.775Z,4.50
2023-03-27T04:47:27.619Z,4.50
2023-03-27T04:50:01.009Z,4.40
2023-03-27T04:52:29.716Z,4.40
2023-03-27T04:55:00.278Z,4.30
2023-03-27T04:57:30.979Z,4.30
2023-03-27T05:00:11.589Z,4.30
2023-03-27T05:03:02.166Z,4.30
2023-03-27T05:05:41.035Z,4.30
2023-03-27T05:08:10.273Z,4.20
2023-03-27T05:10:39.212Z,4.20
2023-03-27T05:13:08.352Z,4.10
2023-03-27T05:15:37.069Z,4.00
2023-03-27T05:18:09.338Z,4.00
2023-03-27T05:20:38.474Z,4.10
2023-03-27T05:23:10.855Z,4.10
2023-03-27T05:25:40.005Z,4.10
2023-03-27T05:28:13.694Z,4.10
2023-03-27T05:30:43.319Z,4.10
2023-03-27T05:33:22.675Z,4.40
2023-03-27T05:35:52.353Z,4.90
2023-03-27T05:38:22.707Z,5.50
2023-03-27T05:41:24.315Z,6.10
2023-03-27T05:43:53.531Z,6.60
2023-03-27T05:46:22.951Z,7.00
2023-03-27T05:48:59.377Z,7.30
2023-03-27T05:51:27.958Z,7.70
2023-03-27T05:53:56.337Z,7.80
2023-03-27T05:56:53.653Z,7.80
2023-03-27T05:59:22.077Z,8.00
2023-03-27T06:01:58.965Z,8.10
2023-03-27T06:04:46.630Z,8.30
2023-03-27T06:07:26.660Z,8.70
2023-03-27T06:09:55.325Z,8.80
2023-03-27T06:12:48.728Z,8.70
2023-03-27T06:15:27.917Z,8.90
2023-03-27T06:18:12.225Z,9.20
2023-03-27T06:20:42.788Z,9.50
2023-03-27T06:23:11.284Z,9.60
2023-03-27T06:25:40.583Z,9.60
2023-03-27T06:28:12.259Z,10.10
2023-03-27T06:30:46.156Z,10.70
2023-03-27T06:33:30.891Z,10.30
2023-03-27T06:36:03.280Z,9.80
2023-03-27T06:38:33.377Z,9.30
2023-03-27T06:41:03.333Z,9.10
2023-03-27T06:44:01.128Z,9.00
2023-03-27T06:46:47.961Z,8.50
2023-03-27T06:49:22.736Z,8.00
2023-03-27T06:51:52.846Z,7.80
2023-03-27T06:54:22.820Z,7.50
2023-03-27T06:56:54.577Z,7.30
2023-03-27T06:59:23.795Z,7.40
2023-03-27T07:01:58.488Z,7.40
2023-03-27T07:04:29.730Z,7.60
2023-03-27T07:07:25.105Z,8.20
2023-03-27T07:09:53.714Z,9.30
2023-03-27T07:12:26.766Z,10.00
2023-03-27T07:14:55.242Z,10.50
2023-03-27T07:17:37.891Z,11.30
2023-03-27T07:20:14.701Z,12.20
2023-03-27T07:22:44.500Z,12.90
2023-03-27T07:25:23.610Z,13.50
2023-03-27T07:27:52.410Z,13.70
2023-03-27T07:30:21.359Z,14.40
2023-03-27T07:32:49.957Z,14.90
2023-03-27T07:35:18.509Z,14.90
2023-03-27T07:38:06.650Z,14.80
2023-03-27T07:40:40.538Z,14.60
2023-03-27T07:43:29.397Z,14.10
2023-03-27T07:45:58.929Z,13.10
2023-03-27T07:48:29.016Z,12.60
2023-03-27T07:51:12.838Z,11.90
2023-03-27T07:53:44.540Z,11.40
2023-03-27T07:56:24.558Z,11.10
2023-03-27T07:59:11.708Z,11.00
2023-03-27T08:01:42.702Z,10.90
2023-03-27T08:04:11.590Z,10.60
2023-03-27T08:06:42.618Z,10.20
2023-03-27T08:09:17.244Z,9.90
2023-03-27T08:11:47.170Z,9.70
2023-03-27T08:14:16.774Z,9.60
2023-03-27T08:16:45.684Z,9.50
2023-03-27T08:19:14.436Z,9.70
2023-03-27T08:21:47.937Z,9.90
2023-03-27T08:24:18.585Z,9.90
2023-03-27T08:27:19.679Z,9.80
2023-03-27T08:29:48.366Z,9.60
2023-03-27T08:32:16.933Z,9.70
2023-03-27T08:34:47.102Z,10.10
2023-03-27T08:37:21.006Z,9.70
2023-03-27T08:40:25.597Z,9.70
2023-03-27T08:43:08.567Z,9.80
2023-03-27T08:45:44.005Z,10.40
2023-03-27T08:48:18.411Z,11.10
2023-03-27T08:50:53.116Z,11.70
2023-03-27T08:53:34.086Z,12.00
2023-03-27T08:56:07.597Z,12.10
2023-03-27T08:58:40.309Z,11.40
2023-03-27T09:01:22.814Z,11.30
2023-03-27T09:03:57.775Z,10.70
2023-03-27T09:06:29.372Z,10.40
2023-03-27T09:09:07.356Z,10.40
2023-03-27T09:11:48.367Z,10.40
2023-03-27T09:14:27.086Z,10.30
2023-03-27T09:16:57.619Z,10.00
2023-03-27T09:19:42.208Z,9.80
2023-03-27T09:22:18.786Z,9.80
2023-03-27T09:25:02.692Z,10.10
2023-03-27T09:27:53.147Z,10.20
2023-03-27T09:30:49.679Z,9.80
2023-03-27T09:33:29.431Z,9.50
2023-03-27T09:35:59.632Z,9.70
2023-03-27T09:38:33.310Z,9.80
2023-03-27T09:41:07.207Z,10.20
2023-03-27T09:43:42.752Z,10.50
2023-03-27T09:46:18.248Z,10.50
2023-03-27T09:48:57.773Z,10.40
2023-03-27T09:51:47.247Z,10.20
2023-03-27T09:54:28.928Z,10.10
2023-03-27T09:57:05.181Z,9.90
2023-03-27T09:59:37.925Z,9.70
2023-03-27T10:02:20.132Z,9.50
2023-03-27T10:04:59.513Z,9.30
2023-03-27T10:07:33.539Z,8.90
2023-03-27T10:10:25.122Z,8.70
2023-03-27T10:13:26.697Z,8.50
2023-03-27T10:16:02.183Z,8.70
2023-03-27T10:18:44.960Z,8.80
2023-03-27T10:21:36.179Z,8.80
2023-03-27T10:24:19.597Z,8.60
2023-03-27T10:27:08.402Z,8.50
2023-03-27T10:29:41.175Z,8.70
2023-03-27T10:32:15.704Z,8.90
2023-03-27T10:35:24.225Z,9.20
2023-03-27T10:38:24.273Z,9.50
2023-03-27T10:41:14.637Z,9.40
2023-03-27T10:43:50.761Z,9.60
2023-03-27T10:46:22.860Z,9.60
2023-03-27T10:48:59.968Z,9.40
2023-03-27T10:51:46.395Z,9.30
2023-03-27T10:54:35.604Z,9.20
2023-03-27T10:57:11.441Z,9.30
2023-03-27T10:59:47.107Z,9.50
2023-03-27T11:02:32.856Z,9.40
2023-03-27T11:05:08.535Z,9.50
2023-03-27T11:07:42.138Z,9.70
2023-03-27T11:10:18.988Z,10.10
2023-03-27T11:12:54.929Z,10.40
2023-03-27T11:15:31.735Z,10.50
2023-03-27T11:18:04.888Z,10.30
2023-03-27T11:20:59.600Z,10.00
2023-03-27T11:23:48.017Z,9.80
2023-03-27T11:26:30.409Z,10.00
2023-03-27T11:29:06.001Z,10.20
2023-03-27T11:31:49.458Z,10.10
2023-03-27T11:34:37.655Z,10.10
2023-03-27T11:37:35.125Z,10.30
2023-03-27T11:40:10.674Z,10.50
2023-03-27T11:42:49.804Z,10.50
2023-03-27T11:45:22.131Z,10.60
2023-03-27T11:48:11.094Z,10.80
2023-03-27T11:50:54.158Z,11.10
2023-03-27T11:53:48.250Z,11.20
2023-03-27T11:56:36.211Z,11.30
2023-03-27T11:59:55.429Z,11.20
2023-03-27T12:02:40.739Z,10.70
2023-03-27T12:05:21.124Z,10.10
2023-03-27T12:08:03.229Z,9.60
2023-03-27T12:10:36.118Z,9.20
2023-03-27T12:13:40.707Z,9.10
2023-03-27T12:16:36.540Z,9.30
2023-03-27T12:22:24.411Z,9.70
2023-03-27T12:25:18.465Z,9.80
2023-03-27T12:28:22.198Z,9.90
2023-03-27T12:31:32.502Z,10.00
2023-03-27T12:34:04.392Z,10.00
2023-03-27T12:36:38.643Z,9.80
2023-03-27T12:39:16.676Z,9.40
2023-03-27T12:41:46.165Z,9.30
2023-03-27T12:44:32.532Z,9.40
2023-03-27T12:47:09.187Z,9.40
2023-03-27T12:49:48.071Z,9.40
2023-03-27T12:52:27.782Z,9.40
2023-03-27T12:55:37.188Z,9.40
2023-03-27T12:58:35.202Z,9.10
2023-03-27T13:01:45.491Z,8.80
2023-03-27T13:05:16.364Z,8.90
2023-03-27T13:08:08.434Z,9.00
2023-03-27T13:11:03.721Z,8.60
2023-03-27T13:13:57.957Z,8.40
2023-03-27T13:16:40.742Z,8.60
2023-03-27T13:19:31.773Z,9.00
2023-03-27T13:22:23.527Z,9.40
2023-03-27T13:25:10.601Z,9.40
2023-03-27T13:27:50.441Z,9.00
2023-03-27T13:30:44.003Z,8.90
2023-03-27T13:34:12.771Z,8.70
2023-03-27T13:36:43.616Z,8.60
2023-03-27T13:39:22.319Z,8.50
2023-03-27T13:42:06.548Z,8.30
2023-03-27T13:44:51.035Z,8.00
2023-03-27T13:47:57.101Z,7.70
2023-03-27T13:51:00.217Z,7.50
2023-03-27T13:53:56.721Z,7.30
2023-03-27T13:56:55.964Z,7.40
2023-03-27T14:00:21.737Z,7.40
2023-03-27T14:03:38.514Z,7.50
2023-03-27T14:06:31.444Z,7.70
2023-03-27T14:09:08.594Z,7.70
2023-03-27T14:12:08.450Z,7.80
2023-03-27T14:15:27.764Z,8.00
2023-03-27T14:18:58.534Z,8.10
2023-03-27T14:21:49.621Z,8.20
2023-03-27T14:24:28.188Z,8.30
2023-03-27T14:27:08.198Z,8.40
2023-03-27T14:29:38.097Z,8.40
2023-03-27T14:32:08.064Z,8.30
2023-03-27T14:34:51.041Z,8.30
2023-03-27T14:37:38.997Z,8.30
2023-03-27T14:40:33.214Z,8.20
2023-03-27T14:43:08.029Z,8.30
2023-03-27T14:45:40.784Z,8.50
2023-03-27T14:48:21.123Z,8.40
2023-03-27T14:50:53.788Z,8.40
2023-03-27T14:53:27.567Z,8.40
2023-03-27T14:56:27.696Z,8.50
2023-03-27T14:59:01.937Z,8.50
2023-03-27T15:01:42.064Z,8.50
2023-03-27T15:04:12.602Z,8.70
2023-03-27T15:06:43.382Z,8.80
2023-03-27T15:09:20.117Z,8.90
2023-03-27T15:12:25.163Z,8.90
2023-03-27T15:14:55.914Z,9.20
2023-03-27T15:17:24.235Z,9.30
2023-03-27T15:19:55.668Z,9.40
2023-03-27T15:22:30.005Z,9.50
2023-03-27T15:25:03.996Z,9.60
2023-03-27T15:27:35.560Z,9.60
2023-03-27T15:30:10.113Z,9.60
2023-03-27T15:32:43.300Z,9.40
2023-03-27T15:35:17.961Z,9.50
2023-03-27T15:37:46.712Z,9.60
2023-03-27T15:40:36.760Z,9.70
2023-03-27T15:43:20.999Z,9.70
2023-03-27T15:46:03.238Z,9.70
2023-03-27T15:48:35.162Z,9.80
2023-03-27T15:51:05.668Z,9.80
2023-03-27T15:53:36.586Z,9.90
2023-03-27T15:56:08.837Z,9.90
2023-03-27T15:58:45.620Z,9.90
2023-03-27T16:01:19.913Z,9.70
2023-03-27T16:03:53.068Z,9.60
2023-03-27T16:06:30.898Z,9.20
2023-03-27T16:08:59.725Z,8.90
2023-03-27T16:11:39.607Z,8.40
2023-03-27T16:14:21.537Z,8.00
2023-03-27T16:16:53.581Z,7.50
2023-03-27T16:19:21.838Z,7.30
2023-03-27T16:21:56.158Z,7.20
2023-03-27T16:24:24.473Z,7.20
2023-03-27T16:26:55.039Z,7.30
2023-03-27T16:29:23.331Z,7.30
2023-03-27T16:31:51.620Z,7.30
2023-03-27T16:34:22.459Z,7.30
2023-03-27T16:36:51.755Z,7.30
2023-03-27T16:39:20.224Z,7.20
2023-03-27T16:41:48.507Z,7.30
2023-03-27T16:44:18.995Z,7.30
2023-03-27T16:46:47.540Z,7.20
2023-03-27T16:49:15.853Z,7.20
2023-03-27T16:51:44.105Z,7.30
2023-03-27T16:54:12.337Z,7.20
2023-03-27T16:56:40.756Z,7.20
2023-03-27T16:59:09.257Z,7.10
2023-03-27T17:01:39.167Z,7.20
2023-03-27T17:04:07.783Z,7.20
2023-03-27T17:06:38.321Z,7.10
2023-03-27T17:09:07.741Z,7.00
2023-03-27T17:11:36.361Z,6.90
2023-03-27T17:14:05.392Z,6.70
2023-03-27T17:16:33.787Z,6.60
2023-03-27T17:19:03.502Z,6.60
2023-03-27T17:21:31.930Z,6.60
2023-03-27T17:24:01.054Z,6.70
2023-03-27T17:26:31.154Z,6.70
2023-03-27T17:28:59.667Z,6.70
2023-03-27T17:31:30.174Z,6.60
2023-03-27T17:33:59.467Z,6.60
2023-03-27T17:36:41.098Z,6.70
2023-03-27T17:39:11.637Z,6.70
2023-03-27T17:41:39.992Z,6.70
2023-03-27T17:44:08.479Z,6.70
2023-03-27T17:46:36.829Z,6.60
2023-03-27T17:49:05.465Z,6.70
2023-03-27T17:51:35.502Z,6.70
2023-03-27T17:54:04.387Z,6.70
2023-03-27T17:56:32.739Z,6.70
2023-03-27T17:59:02.382Z,6.70
2023-03-27T18:01:30.848Z,6.70
2023-03-27T18:04:00.522Z,6.70
2023-03-27T18:06:29.033Z,6.70
2023-03-27T18:08:58.872Z,6.70
2023-03-27T18:11:29.111Z,6.70
2023-03-27T18:13:57.365Z,6.70
2023-03-27T18:16:25.632Z,6.60
2023-03-27T18:18:55.539Z,6.60
2023-03-27T18:21:24.050Z,6.60
2023-03-27T18:23:53.910Z,6.60
2023-03-27T18:26:23.865Z,6.60
2023-03-27T18:28:52.485Z,6.60
2023-03-27T18:31:20.876Z,6.50
2023-03-27T18:33:49.224Z,6.40
2023-03-27T18:36:17.556Z,6.40
2023-03-27T18:38:48.395Z,6.40
2023-03-27T18:41:18.236Z,6.20
2023-03-27T18:43:48.059Z,6.20
2023-03-27T18:46:17.673Z,6.10
2023-03-27T18:48:48.551Z,6.00
2023-03-27T18:51:18.565Z,6.00
2023-03-27T18:53:47.018Z,6.00
2023-03-27T18:56:16.718Z,5.90
2023-03-27T18:58:45.042Z,5.90
2023-03-27T19:01:14.863Z,5.90
2023-03-27T19:03:43.515Z,5.80
2023-03-27T19:06:12.963Z,5.80
2023-03-27T19:08:43.032Z,5.80
2023-03-27T19:11:11.576Z,5.80
2023-03-27T19:13:58.611Z,5.80
2023-03-27T19:16:46.835Z,5.80
2023-03-27T19:19:18.133Z,5.80
2023-03-27T19:21:55.804Z,5.80
2023-03-27T19:24:53.647Z,5.70
2023-03-27T19:27:23.967Z,5.60
2023-03-27T19:29:53.555Z,5.60
2023-03-27T19:32:24.786Z,5.60
2023-03-27T19:34:53.030Z,5.60
2023-03-27T19:37:21.377Z,5.50
2023-03-27T19:39:50.613Z,5.50
2023-03-27T19:42:19.210Z,5.50
2023-03-27T19:44:47.498Z,5.40
2023-03-27T19:47:16.512Z,5.30
2023-03-27T19:49:46.360Z,5.30
2023-03-27T19:52:28.016Z,5.20
2023-03-27T19:54:56.486Z,5.20
2023-03-27T19:57:25.728Z,5.20
2023-03-27T19:59:55.068Z,5.20
2023-03-27T20:02:23.468Z,5.30
2023-03-27T20:04:53.967Z,5.30
2023-03-27T20:07:22.154Z,5.30
2023-03-27T20:09:50.493Z,5.30
2023-03-27T20:12:21.461Z,5.30
2023-03-27T20:15:02.942Z,5.30
2023-03-27T20:17:38.181Z,5.30
2023-03-27T20:20:10.668Z,5.40
2023-03-27T20:22:54.113Z,5.30
2023-03-27T20:25:25.787Z,5.40
2023-03-27T20:27:54.647Z,5.40
2023-03-27T20:30:23.098Z,5.40
2023-03-27T20:32:51.802Z,5.40
2023-03-27T20:35:32.416Z,5.40
2023-03-27T20:38:04.658Z,5.30
2023-03-27T20:40:52.392Z,5.30
2023-03-27T20:43:27.007Z,5.30
2023-03-27T20:45:59.059Z,5.20
2023-03-27T20:48:32.441Z,5.20
2023-03-27T20:51:07.122Z,5.20
2023-03-27T20:53:39.950Z,5.20
2023-03-27T20:56:09.841Z,5.20
2023-03-27T20:58:39.567Z,5.20
2023-03-27T21:01:10.567Z,5.10
2023-03-27T21:03:41.876Z,5.10
2023-03-27T21:06:14.765Z,5.10
2023-03-27T21:08:43.192Z,5.20
2023-03-27T21:11:11.705Z,5.20
2023-03-27T21:13:40.385Z,5.30
2023-03-27T21:16:10.407Z,5.30
2023-03-27T21:18:38.718Z,5.20
2023-03-27T21:21:07.940Z,5.10
2023-03-27T21:23:40.684Z,5.10
2023-03-27T21:26:09.272Z,5.00
2023-03-27T21:28:37.414Z,5.00
2023-03-27T21:31:08.098Z,5.00
2023-03-27T21:33:37.028Z,5.00
2023-03-27T21:36:06.318Z,4.90
2023-03-27T21:38:34.762Z,4.90
2023-03-27T21:41:04.892Z,4.80
2023-03-27T21:43:33.623Z,4.80
2023-03-27T21:46:03.654Z,4.70
2023-03-27T21:48:32.465Z,4.70
2023-03-27T21:51:01.199Z,4.70
2023-03-27T21:53:29.811Z,4.70
2023-03-27T21:55:59.048Z,4.70
2023-03-27T21:58:29.419Z,4.70
2023-03-27T22:00:59.166Z,4.70
2023-03-27T22:03:29.147Z,4.80
2023-03-27T22:06:10.966Z,4.80
2023-03-27T22:08:41.046Z,4.90
2023-03-27T22:11:09.594Z,5.00
2023-03-27T22:13:40.391Z,5.00
2023-03-27T22:16:10.810Z,5.00
2023-03-27T22:18:39.127Z,5.00
2023-03-27T22:21:16.562Z,5.10
2023-03-27T22:23:46.061Z,5.10
2023-03-27T22:26:14.470Z,5.10
2023-03-27T22:28:44.548Z,5.10
2023-03-27T22:31:13.126Z,5.00
2023-03-27T22:33:41.728Z,5.00
2023-03-27T22:36:14.195Z,5.00
2023-03-27T22:38:43.108Z,5.00
2023-03-27T22:41:13.166Z,5.00
2023-03-27T22:43:43.123Z,5.00
2023-03-27T22:46:13.896Z,5.00
2023-03-27T22:48:43.357Z,5.10
2023-03-27T22:51:13.256Z,5.10
2023-03-27T22:53:42.147Z,5.10
2023-03-27T22:56:11.604Z,5.10
2023-03-27T22:58:40.565Z,5.00
2023-03-27T23:01:10.201Z,5.00
2023-03-27T23:03:38.694Z,5.00
2023-03-27T23:06:08.337Z,5.00
2023-03-27T23:08:36.530Z,4.90
2023-03-27T23:11:06.613Z,4.80
2023-03-27T23:13:36.653Z,4.80
2023-03-27T23:16:05.384Z,4.90
2023-03-27T23:18:37.406Z,4.80
2023-03-27T23:21:07.549Z,4.70
2023-03-27T23:23:37.702Z,4.60
2023-03-27T23:26:07.885Z,4.50
2023-03-27T23:28:38.082Z,4.50
2023-03-27T23:31:08.414Z,4.50
2023-03-27T23:33:40.265Z,4.50
2023-03-27T23:36:10.887Z,4.50
2023-03-27T23:38:41.434Z,4.40
2023-03-27T23:41:11.717Z,4.30
2023-03-27T23:43:39.978Z,4.20
2023-03-27T23:46:10.579Z,4.20
2023-03-27T23:48:42.175Z,4.20
2023-03-27T23:51:13.734Z,4.20
2023-03-27T23:53:42.399Z,4.20
2023-03-27T23:56:11.400Z,4.20
2023-03-27T23:58:39.888Z,4.20
